Kezdőlap
METAR-TAF:

METAR-TAF

Repülőterek :

Portage Glacier, Alaszka, Amerikai Egyesült Államok

földrajzi szélesség: 60-47N, földrajzi hosszúság: 148-50W, magasság: 29 m

Jelenlegi meteorológiai megfigyelések

A jelentés 51 perccel ezelõtt készült, 00:53 UTC
Keleti szél 7 kt
Hőmérséklet 17°C
Páratartalom 59%
Légköri nyomás 1023 hPa
Látótávolság: 16.1 km
Szakadozott felhőzet 12000 lábon

METAR: PATO 210053Z AUTO 09007KT 10SM BKN120 17/09 A3022 RMK AO2 SLP235 T01670089 TSNO $

Idő: 17:44 (01:44 UTC)


TAF: hiányzik

Meteorológiai megfigyelések és előrejelzések több, mint 4000 repülőtéren (METAR és TAF jelentéseket).

A térképen piros és sárga pontok jelzik az elérhető meteorológiai állomásokat.

Mozgassa az egeret a pont fölött, hogy megjelenjen az állomás neve.

Azután kattintson az időjárási megfigyelések és előrejelzések megtekintéséhez.

A térkép megváltoztatása: kattintson a fekete keresztel jelölt zöld gombra ráközelítéshez, a vonallal jelölt zöld gombra távolításhoz, vagy a zöld nyilakra a szomszédos térképek eléréséhez.


METAR-TAF: